中部国際空港の過去48時間の天気

中部国際空港 (Chubu Centrair International)

現在時刻: 2/22 14:57 JST (2/22 05:57 UTC) 以下の時間は現地時間です。

過去48時間のMETAR気象情報
時間 風向 風速(m/s) 視程 気温(℃) 湿度(%) 気圧(hPa) 天気現象
22 14:00 7 5000m 9 93 1018 弱いしゅう雨 もや
22 12:30 6 8000m 9 87 1020 弱いしゅう雨
22 11:00 南東 2 10km以上 11 82 1023
22 10:30 東南東 2 10km以上 11 82 1023
22 10:00 東北東 2 8000m 10 82 1024
22 09:00 東南東 3 8000m 9 87 1025
22 08:30 東南東 2 8000m 9 87 1025
22 08:00 2 8000m 10 82 1025
22 06:30 不定 1 10km以上 8 87 1026
22 06:00 2 10km以上 8 93 1026
22 05:00 南東 3 10km以上 8 81 1026
22 04:30 北北東 2 10km以上 9 81 1027
22 03:30 南南東 2 10km以上 9 87 1028
22 03:00 不定 1 10km以上 8 87 1028
22 02:30 不定 1 10km以上 9 81 1029
22 02:00 2 10km以上 10 76 1029
22 01:30 2 10km以上 10 71 1029
22 01:00 東北東 2 10km以上 11 71 1030
22 00:30 北北東 1 10km以上 10 71 1030
22 00:00 2 10km以上 10 76 1030 周辺でしゅう雨
21 23:30 3 10km以上 10 76 1030 周辺でしゅう雨
21 23:00 北北西 3 10km以上 10 82 1031
21 22:30 西北西 2 10km以上 10 82 1032
21 22:00 西北西 2 10km以上 10 76 1031
21 21:30 西 3 10km以上 10 76 1032
21 21:00 南南西 2 10km以上 11 71 1032
21 20:30 南南西 2 10km以上 11 76 1032
21 20:00 2 10km以上 10 71 1032
21 19:30 南南東 3 10km以上 10 71 1032
21 19:00 南南東 2 10km以上 11 67 1032
21 18:30 南南東 2 10km以上 10 66 1032
21 18:00 南東 2 10km以上 11 58 1032
21 17:30 2 10km以上 11 62 1032
21 17:00 1 10km以上 12 54 1032
21 16:30 南南西 2 10km以上 12 50 1032
21 16:00 南南西 2 10km以上 12 47 1032
21 15:30 南西 3 10km以上 12 47 1032
21 15:00 西 3 10km以上 13 44 1032
21 14:30 西 3 10km以上 13 41 1032
21 14:00 西北西 3 10km以上 12 35 1032
21 13:30 北西 3 10km以上 12 41 1032
21 13:00 北西 4 10km以上 11 40 1032
21 12:30 北西 4 10km以上 11 43 1033
21 12:00 北西 4 10km以上 11 37 1034
21 11:30 5 10km以上 12 30 1034
21 11:00 北北西 5 10km以上 11 43 1035
21 10:30 北北西 4 10km以上 11 40 1035
21 10:00 北北西 4 10km以上 10 46 1035
21 09:30 北北西 2 10km以上 9 46 1036
21 09:00 2 10km以上 9 43 1036
21 08:30 3 10km以上 8 53 1036
21 08:00 4 10km以上 8 53 1035
21 07:30 北北東 3 10km以上 7 57 1035
21 07:00 5 10km以上 6 61 1035
21 06:30 北西 5 10km以上 8 57 1035
21 06:00 北西 5 10km以上 8 61 1034
21 05:30 北北西 5 10km以上 8 57 1033
21 05:00 北北西 6 10km以上 8 53 1034
21 04:30 北北西 6 10km以上 8 61 1033
21 04:00 北北西 7 10km以上 8 57 1033
21 03:30 北北西 8 10km以上 8 57 1033
21 03:00 北北西 8 10km以上 8 57 1033
21 02:30 北北西 8 10km以上 9 53 1033
21 02:00 北北西 8 10km以上 8 61 1032
21 01:30 北西 7 10km以上 9 62 1032
21 01:00 北西 9 10km以上 9 57 1032
21 00:30 北北西 8 10km以上 9 53 1032
21 00:00 北北西 8 10km以上 9 57 1032
20 23:30 北西 9 10km以上 9 57 1032
20 23:00 北西 9 10km以上 9 57 1032
20 22:30 北西 12 10km以上 10 58 1032
20 22:00 北西 12 10km以上 10 58 1032
20 21:30 北西 10 10km以上 10 58 1032
20 21:00 北西 10 10km以上 10 62 1032
20 20:30 北西 9 10km以上 10 62 1031
20 20:00 北西 9 10km以上 10 62 1031
20 19:30 北北西 7 10km以上 10 66 1031
20 19:00 北西 10 10km以上 10 66 1030
20 18:30 北西 10 10km以上 10 62 1030
20 18:00 北西 12 10km以上 11 58 1029
20 17:30 北北西 12 10km以上 11 62 1029
20 17:00 北北西 7 10km以上 11 62 1028
20 16:30 北西 8 10km以上 12 58 1028
20 16:00 北西 7 10km以上 12 54 1028
20 15:00 北北西 8 10km以上 12 54 1028
RJGG 220500Z 35014KT 5000 -SHRA BR FEW008 SCT030 BKN070 09/08 Q1018 TEMPO 4000 SHRA BR
RJGG 220330Z 35012KT 8000 -SHRA FEW025 BKN030 BKN045 09/07 Q1020 NOSIG
RJGG 220200Z 13004KT 9999 FEW025 SCT070 BKN080 11/08 Q1023 BECMG 04005KT
RJGG 220130Z 12003KT 080V160 9999 FEW025 SCT070 BKN090 11/08 Q1023 BECMG 04005KT
RJGG 220100Z 07004KT 020V120 8000 FEW025 SCT070 BKN090 10/07 Q1024 NOSIG
RJGG 220000Z 12005KT 8000 FEW025 SCT080 BKN100 09/07 Q1025 BECMG 18015KT
RJGG 212330Z 11003KT 8000 FEW025 BKN100 BKN120 09/07 Q1025 BECMG 18015KT
RJGG 212300Z 08003KT 8000 FEW025 SCT100 BKN120 10/07 Q1025 NOSIG
RJGG 212130Z VRB02KT 9999 FEW025 BKN120 08/06 Q1026 NOSIG
RJGG 212100Z 18004KT 9999 FEW025 08/07 Q1026 NOSIG
RJGG 212000Z 13005KT 080V160 9999 FEW025 SCT080 08/05 Q1026 BECMG 36005KT
RJGG 211930Z 02003KT 310V050 9999 FEW025 BKN080 09/06 Q1027 NOSIG
RJGG 211830Z 16004KT 130V190 9999 FEW025 BKN/// 09/07 Q1028 NOSIG
RJGG 211800Z VRB01KT 9999 FEW025 BKN/// 08/06 Q1028 NOSIG
RJGG 211730Z VRB02KT 9999 FEW025 BKN/// 09/06 Q1029 NOSIG
RJGG 211700Z 09003KT 9999 FEW025 BKN/// 10/06 Q1029 NOSIG
RJGG 211630Z 08004KT 9999 BKN024 BKN/// 10/05 Q1029 NOSIG
RJGG 211600Z 06003KT 9999 SCT025 BKN/// 11/06 Q1030 NOSIG
RJGG 211530Z 03001KT 9999 BKN025 10/05 Q1030 NOSIG
RJGG 211500Z 35003KT 9999 VCSH SCT025 BKN045 10/06 Q1030 NOSIG
RJGG 211430Z 35005KT 9999 VCSH SCT025 BKN035 10/06 Q1030 NOSIG
RJGG 211400Z 33005KT 9999 SCT025 BKN035 10/07 Q1031 NOSIG
RJGG 211330Z 29004KT 9999 SCT025 BKN035 10/07 Q1032 NOSIG
RJGG 211300Z 29003KT 9999 FEW025 BKN035 10/06 Q1031 NOSIG
RJGG 211230Z 27005KT 9999 FEW025 SCT035 BKN/// 10/06 Q1032 NOSIG
RJGG 211200Z 21004KT 9999 FEW025 SCT030 11/06 Q1032 NOSIG
RJGG 211130Z 20004KT 9999 FEW020 BKN025 BKN/// 11/07 Q1032 NOSIG
RJGG 211100Z 17004KT 9999 FEW030 SCT040 BKN/// 10/05 Q1032 NOSIG
RJGG 211030Z 15005KT 9999 FEW030 SCT040 BKN050 10/05 Q1032 NOSIG
RJGG 211000Z 15004KT 9999 FEW030 BKN040 BKN/// 11/05 Q1032 NOSIG
RJGG 210930Z 15003KT 9999 FEW030 SCT050 BKN/// 10/04 Q1032 NOSIG
RJGG 210900Z 14003KT 9999 FEW030 BKN/// 11/03 Q1032 NOSIG
RJGG 210830Z 17003KT 9999 FEW030 BKN/// 11/04 Q1032 NOSIG
RJGG 210800Z 18002KT 9999 FEW030 BKN/// 12/03 Q1032 NOSIG
RJGG 210730Z 21003KT 9999 FEW030 BKN/// 12/02 Q1032 NOSIG
RJGG 210700Z 20004KT 9999 FEW030 BKN/// 12/01 Q1032 NOSIG
RJGG 210630Z 23005KT 9999 FEW030 BKN/// 12/01 Q1032 NOSIG
RJGG 210600Z 26005KT 9999 FEW030 SCT/// 13/01 Q1032 BECMG 22005KT
RJGG 210530Z 28005KT 9999 FEW030 13/M00 Q1032 BECMG 24005KT
RJGG 210500Z 30006KT 9999 FEW030 12/M03 Q1032 BECMG 24005KT
RJGG 210430Z 31006KT 9999 FEW030 12/M01 Q1032 BECMG 24005KT
RJGG 210400Z 32007KT 9999 FEW030 11/M02 Q1032 BECMG 24005KT
RJGG 210330Z 31007KT 9999 FEW030 11/M01 Q1033 BECMG 24005KT
RJGG 210300Z 32008KT 9999 FEW030 11/M03 Q1034 NOSIG
RJGG 210230Z 36009KT 9999 FEW030 12/M05 Q1034 NOSIG
RJGG 210200Z 33009KT 9999 FEW030 11/M01 Q1035 NOSIG
RJGG 210130Z 34007KT 9999 FEW030 11/M02 Q1035 NOSIG
RJGG 210100Z 33008KT 9999 FEW030 10/M01 Q1035 NOSIG
RJGG 210030Z 34004KT 290V040 9999 FEW030 09/M02 Q1036 NOSIG
RJGG 210000Z 35003KT 310V040 9999 FEW030 09/M03 Q1036 NOSIG
RJGG 202330Z 01006KT 9999 FEW030 08/M01 Q1036 NOSIG
RJGG 202300Z 35007KT 9999 FEW030 08/M01 Q1035 NOSIG
RJGG 202230Z 03006KT 9999 FEW030 07/M01 Q1035 NOSIG
RJGG 202200Z 35009KT 9999 FEW030 06/M01 Q1035 NOSIG
RJGG 202130Z 31009KT 9999 FEW030 08/M00 Q1035 NOSIG
RJGG 202100Z 31010KT 9999 FEW030 08/01 Q1034 NOSIG
RJGG 202030Z 34010KT 9999 FEW030 08/M00 Q1033 NOSIG
RJGG 202000Z 33012KT 9999 FEW030 08/M01 Q1034 NOSIG
RJGG 201930Z 33012KT 9999 FEW030 08/01 Q1033 NOSIG
RJGG 201900Z 34014KT 9999 FEW030 08/M00 Q1033 NOSIG
RJGG 201830Z 33015KT 9999 FEW030 08/M00 Q1033 NOSIG
RJGG 201800Z 33016KT 9999 FEW030 08/M00 Q1033 NOSIG
RJGG 201730Z 33015KT 9999 FEW030 09/00 Q1033 NOSIG
RJGG 201700Z 33015KT 9999 FEW030 08/01 Q1032 NOSIG
RJGG 201630Z 31014KT 9999 FEW030 09/02 Q1032 NOSIG
RJGG 201600Z 31017KT 9999 FEW030 09/01 Q1032 NOSIG
RJGG 201530Z 33015KT 9999 FEW030 09/00 Q1032 NOSIG
RJGG 201500Z 33016KT 9999 FEW030 09/01 Q1032 NOSIG
RJGG 201430Z 32018KT 9999 FEW030 09/01 Q1032 NOSIG
RJGG 201400Z 32017KT 9999 FEW030 09/01 Q1032 NOSIG
RJGG 201330Z 31023KT 9999 FEW030 10/02 Q1032 NOSIG
RJGG 201300Z 32024KT 9999 FEW030 10/02 Q1032 NOSIG
RJGG 201230Z 32020KT 9999 FEW030 10/02 Q1032 NOSIG
RJGG 201200Z 32019KT 9999 FEW030 10/03 Q1032 NOSIG
RJGG 201130Z 31017KT 9999 FEW030 10/03 Q1031 NOSIG
RJGG 201100Z 31018KT 9999 FEW030 10/03 Q1031 NOSIG
RJGG 201030Z 33013KT 9999 FEW030 10/04 Q1031 NOSIG
RJGG 201000Z 31020KT 9999 FEW030 10/04 Q1030 NOSIG
RJGG 200930Z 31019KT 9999 FEW030 10/03 Q1030 NOSIG
RJGG 200900Z 32024KT 9999 FEW030 11/03 Q1029 NOSIG
RJGG 200830Z 33023KT 9999 FEW030 SCT/// 11/04 Q1029 NOSIG
RJGG 200800Z 33014KT 9999 FEW030 SCT/// 11/04 Q1028 NOSIG
RJGG 200730Z 32015KT 9999 FEW030 SCT/// 12/04 Q1028 NOSIG
RJGG 200700Z 32014KT 9999 FEW030 BKN/// 12/03 Q1028 NOSIG
RJGG 200600Z 34015KT 9999 FEW030 BKN120 BKN/// 12/03 Q1028 NOSIG